Lillie, Louisiana
Current Conditions -  °F | °C
As of 3:10 PM on Monday 22 Dec 2014 (Local Time) from KELD Reporting Station
Overcast Overcast  
Wind Chill: 61°   Ceiling: 2200
Heat Index: 61°   Visibility: 10mi
Dew Point: 56°   Wind: 8mph
Humidity: 83%   Direction: 180°S
Pressure: 29.57"   Gusts: NA
Location:  32.93°N, 92.66°W
Report Text: KELD 222110Z AUTO 18007KT 10SM SCT015 BKN022 OVC038 16/13 A2957 RMK AO2 T01610133
Loading
Personal Weather Stations






























Interactive Weather Map New forecast layout! Learn more

10-Day Weather Forecast

Advertisements
Track Severe Weather on mobile